Terminal Aerodrome Forecast
Issued by NWS

Home | Current Version | Previous Version | Graphics & Text | Print | Product List | Glossary On
Versions: 1 2 3 4 5 6 7 8 9 10 11 12
288
FTUS45 KGGW 141722
TAFSDY
TAF
KSDY 141722Z 1418/1518 VRB06KT P6SM FEW008 SCT025
     FM142100 26009KT P6SM FEW030
     FM150100 23004KT P6SM FEW250
     FM151000 25010KT P6SM SCT100=

USA.gov is the U.S. government's official web portal to all federal, state and local government web resources and services.